Time,TemperatureF,DewpointF,PressureIn,WindDirection,WindDirectionDegrees,WindSpeedMPH,WindSpeedGustMPH,Humidity,HourlyPrecipIn,Conditions,Clouds,dailyrainin,SolarRadiationWatts/m^2,SoftwareType,DateUTC
2013-06-13 00:05:00,59.7,25.5,29.56,North,-999,-999.0,-999.0,5,0.00,,,-99.99,0.0,Linux-Irox,2013-06-13 07:05:00,
2013-06-13 00:15:00,59.2,25.0,29.56,North,-999,-999.0,-999.0,5,0.00,,,-99.99,0.0,Linux-Irox,2013-06-13 07:15:00,
2013-06-13 00:25:00,59.2,25.0,29.56,North,-999,-999.0,-999.0,5,0.00,,,-99.99,0.0,Linux-Irox,2013-06-13 07:25:00,
2013-06-13 00:35:00,58.5,24.3,29.56,North,-999,-999.0,-999.0,5,0.00,,,-99.99,0.0,Linux-Irox,2013-06-13 07:35:00,
2013-06-13 00:45:00,58.3,24.1,29.56,North,-999,-999.0,-999.0,5,0.00,,,-99.99,0.0,Linux-Irox,2013-06-13 07:45:00,
2013-06-13 00:55:00,58.3,24.1,29.56,North,-999,-999.0,-999.0,5,0.00,,,-99.99,0.0,Linux-Irox,2013-06-13 07:55:00,
2013-06-13 01:05:00,58.1,23.9,29.56,North,-999,-999.0,-999.0,5,0.00,,,-99.99,0.0,Linux-Irox,2013-06-13 08:05:00,
2013-06-13 01:15:00,57.7,23.5,29.56,North,-999,-999.0,-999.0,5,0.00,,,-99.99,0.0,Linux-Irox,2013-06-13 08:15:00,
2013-06-13 01:25:00,57.7,23.5,29.56,North,-999,-999.0,-999.0,5,0.00,,,-99.99,0.0,Linux-Irox,2013-06-13 08:25:00,
2013-06-13 01:35:00,57.7,23.5,29.56,North,-999,-999.0,-999.0,5,0.00,,,-99.99,0.0,Linux-Irox,2013-06-13 08:35:00,
2013-06-13 01:45:00,57.0,22.8,29.56,North,-999,-999.0,-999.0,5,0.00,,,-99.99,0.0,Linux-Irox,2013-06-13 08:45:00,
2013-06-13 01:55:00,56.3,22.1,29.56,North,-999,-999.0,-999.0,5,0.00,,,-99.99,0.0,Linux-Irox,2013-06-13 08:55:00,
2013-06-13 02:05:00,56.1,21.9,29.57,North,-999,-999.0,-999.0,5,0.00,,,-99.99,0.0,Linux-Irox,2013-06-13 09:05:00,
2013-06-13 02:15:00,55.6,21.4,29.57,North,-999,-999.0,-999.0,5,0.00,,,-99.99,0.0,Linux-Irox,2013-06-13 09:15:00,
2013-06-13 02:25:00,55.4,21.2,29.58,North,-999,-999.0,-999.0,5,0.00,,,-99.99,0.0,Linux-Irox,2013-06-13 09:25:00,
2013-06-13 02:35:00,55.2,21.0,29.58,North,-999,-999.0,-999.0,5,0.00,,,-99.99,0.0,Linux-Irox,2013-06-13 09:35:00,
2013-06-13 02:45:00,54.9,20.7,29.59,North,-999,-999.0,-999.0,5,0.00,,,-99.99,0.0,Linux-Irox,2013-06-13 09:45:00,
2013-06-13 02:55:00,54.5,20.3,29.59,North,-999,-999.0,-999.0,5,0.00,,,-99.99,0.0,Linux-Irox,2013-06-13 09:55:00,
2013-06-13 03:05:00,54.1,19.9,29.59,North,-999,-999.0,-999.0,5,0.00,,,-99.99,0.0,Linux-Irox,2013-06-13 10:05:00,
2013-06-13 03:15:00,54.0,19.8,29.59,North,-999,-999.0,-999.0,5,0.00,,,-99.99,0.0,Linux-Irox,2013-06-13 10:15:00,
2013-06-13 03:25:00,53.8,19.6,29.60,North,-999,-999.0,-999.0,5,0.00,,,-99.99,0.0,Linux-Irox,2013-06-13 10:25:00,
2013-06-13 03:35:00,53.8,19.6,29.60,North,-999,-999.0,-999.0,5,0.00,,,-99.99,0.0,Linux-Irox,2013-06-13 10:35:00,
2013-06-13 03:45:00,53.8,19.6,29.60,North,-999,-999.0,-999.0,5,0.00,,,-99.99,0.0,Linux-Irox,2013-06-13 10:45:00,
2013-06-13 03:55:00,53.2,19.0,29.60,North,-999,-999.0,-999.0,5,0.00,,,-99.99,0.0,Linux-Irox,2013-06-13 10:55:00,
2013-06-13 04:05:00,52.9,18.7,29.61,North,-999,-999.0,-999.0,5,0.00,,,-99.99,0.0,Linux-Irox,2013-06-13 11:05:00,
2013-06-13 04:15:00,52.7,18.5,29.61,North,-999,-999.0,-999.0,5,0.00,,,-99.99,0.0,Linux-Irox,2013-06-13 11:15:00,
2013-06-13 04:25:00,52.5,18.3,29.62,North,-999,-999.0,-999.0,5,0.00,,,-99.99,0.0,Linux-Irox,2013-06-13 11:25:00,
2013-06-13 04:35:00,52.3,18.1,29.62,North,-999,-999.0,-999.0,5,0.00,,,-99.99,0.0,Linux-Irox,2013-06-13 11:35:00,
2013-06-13 04:45:00,52.0,17.8,29.62,North,-999,-999.0,-999.0,5,0.00,,,-99.99,0.0,Linux-Irox,2013-06-13 11:45:00,
2013-06-13 04:55:00,51.6,17.8,29.62,North,-999,-999.0,-999.0,6,0.00,,,-99.99,0.0,Linux-Irox,2013-06-13 11:55:00,
2013-06-13 05:05:00,51.4,17.6,29.63,North,-999,-999.0,-999.0,6,0.00,,,-99.99,0.0,Linux-Irox,2013-06-13 12:05:00,
2013-06-13 05:15:00,51.1,18.3,29.63,North,-999,-999.0,-999.0,9,0.00,,,-99.99,0.0,Linux-Irox,2013-06-13 12:15:00,
2013-06-13 05:25:00,50.7,18.0,29.61,North,-999,-999.0,-999.0,9,0.00,,,-99.99,0.0,Linux-Irox,2013-06-13 12:25:00,
2013-06-13 05:35:00,50.7,18.0,29.61,North,-999,-999.0,-999.0,9,0.00,,,-99.99,0.0,Linux-Irox,2013-06-13 12:35:00,
2013-06-13 05:45:00,50.5,17.8,29.61,North,-999,-999.0,-999.0,9,0.00,,,-99.99,0.0,Linux-Irox,2013-06-13 12:45:00,
2013-06-13 05:55:00,50.7,18.0,29.61,North,-999,-999.0,-999.0,9,0.00,,,-99.99,0.0,Linux-Irox,2013-06-13 12:55:00,
2013-06-13 06:05:00,51.1,18.3,29.61,North,-999,-999.0,-999.0,9,0.00,,,-99.99,0.0,Linux-Irox,2013-06-13 13:05:00,
2013-06-13 06:15:00,51.1,18.3,29.61,North,-999,-999.0,-999.0,9,0.00,,,-99.99,0.0,Linux-Irox,2013-06-13 13:15:00,
2013-06-13 06:25:00,51.6,18.9,29.62,North,-999,-999.0,-999.0,9,0.00,,,-99.99,0.0,Linux-Irox,2013-06-13 13:25:00,
2013-06-13 06:35:00,52.3,18.1,29.62,North,-999,-999.0,-999.0,5,0.00,,,-99.99,0.0,Linux-Irox,2013-06-13 13:35:00,
2013-06-13 06:45:00,58.6,24.4,29.61,North,-999,-999.0,-999.0,5,0.00,,,-99.99,0.0,Linux-Irox,2013-06-13 13:45:00,
2013-06-13 06:55:00,62.2,28.0,29.61,North,-999,-999.0,-999.0,5,0.00,,,-99.99,0.0,Linux-Irox,2013-06-13 13:55:00,
2013-06-13 07:05:00,67.8,33.6,29.61,North,-999,-999.0,-999.0,5,0.00,,,-99.99,0.0,Linux-Irox,2013-06-13 14:05:00,
2013-06-13 07:15:00,69.1,34.9,29.61,North,-999,-999.0,-999.0,5,0.00,,,-99.99,0.0,Linux-Irox,2013-06-13 14:15:00,
2013-06-13 07:25:00,72.3,38.1,29.61,North,-999,-999.0,-999.0,5,0.00,,,-99.99,0.0,Linux-Irox,2013-06-13 14:25:00,
2013-06-13 07:35:00,74.8,40.6,29.61,North,-999,-999.0,-999.0,5,0.00,,,-99.99,0.0,Linux-Irox,2013-06-13 14:35:00,
2013-06-13 07:45:00,72.7,38.5,29.61,North,-999,-999.0,-999.0,5,0.00,,,-99.99,0.0,Linux-Irox,2013-06-13 14:45:00,
2013-06-13 07:55:00,73.0,38.8,29.61,North,-999,-999.0,-999.0,5,0.00,,,-99.99,0.0,Linux-Irox,2013-06-13 14:55:00,
2013-06-13 08:05:00,73.6,39.4,29.61,North,-999,-999.0,-999.0,5,0.00,,,-99.99,0.0,Linux-Irox,2013-06-13 15:05:00,
2013-06-13 08:15:00,73.2,39.0,29.61,North,-999,-999.0,-999.0,5,0.00,,,-99.99,0.0,Linux-Irox,2013-06-13 15:15:00,
2013-06-13 08:16:00,73.2,39.0,29.61,North,-999,-999.0,-999.0,5,0.00,,,-99.99,0.0,Linux-Irox,2013-06-13 15:16:00,
2013-06-13 08:25:00,73.9,39.7,29.64,North,-999,-999.0,-999.0,5,0.00,,,-99.99,0.0,Linux-Irox,2013-06-13 15:25:00,
2013-06-13 08:31:00,74.5,40.3,29.64,North,-999,-999.0,-999.0,5,0.00,,,-99.99,0.0,Linux-Irox,2013-06-13 15:31:00,
2013-06-13 08:35:00,74.7,40.5,29.64,North,-999,-999.0,-999.0,5,0.00,,,-99.99,0.0,Linux-Irox,2013-06-13 15:35:00,
2013-06-13 08:45:00,75.9,41.7,29.65,North,-999,-999.0,-999.0,5,0.00,,,-99.99,0.0,Linux-Irox,2013-06-13 15:45:00,
2013-06-13 08:46:00,75.9,41.7,29.65,North,-999,-999.0,-999.0,5,0.00,,,-99.99,0.0,Linux-Irox,2013-06-13 15:46:00,
2013-06-13 08:55:00,77.7,43.5,29.65,North,-999,-999.0,-999.0,5,0.00,,,-99.99,0.0,Linux-Irox,2013-06-13 15:55:00,
2013-06-13 09:02:00,79.5,45.3,29.65,North,-999,-999.0,-999.0,5,0.00,,,-99.99,0.0,Linux-Irox,2013-06-13 16:02:00,
2013-06-13 09:05:00,80.2,46.0,29.65,North,-999,-999.0,-999.0,5,0.00,,,-99.99,0.0,Linux-Irox,2013-06-13 16:05:00,
2013-06-13 09:15:00,78.1,43.9,29.65,North,-999,-999.0,-999.0,5,0.00,,,-99.99,0.0,Linux-Irox,2013-06-13 16:15:00,
2013-06-13 09:17:00,78.1,43.9,29.65,North,-999,-999.0,-999.0,5,0.00,,,-99.99,0.0,Linux-Irox,2013-06-13 16:17:00,
2013-06-13 09:25:00,79.9,45.7,29.65,North,-999,-999.0,-999.0,5,0.00,,,-99.99,0.0,Linux-Irox,2013-06-13 16:25:00,
2013-06-13 09:31:00,81.3,47.1,29.65,North,-999,-999.0,-999.0,5,0.00,,,-99.99,0.0,Linux-Irox,2013-06-13 16:31:00,
2013-06-13 09:35:00,81.5,47.3,29.65,North,-999,-999.0,-999.0,5,0.00,,,-99.99,0.0,Linux-Irox,2013-06-13 16:35:00,
2013-06-13 09:45:00,80.4,46.2,29.65,North,-999,-999.0,-999.0,5,0.00,,,-99.99,0.0,Linux-Irox,2013-06-13 16:45:00,
2013-06-13 09:46:00,80.4,46.2,29.65,North,-999,-999.0,-999.0,5,0.00,,,-99.99,0.0,Linux-Irox,2013-06-13 16:46:00,
2013-06-13 09:55:00,80.8,46.6,29.65,North,-999,-999.0,-999.0,5,0.00,,,-99.99,0.0,Linux-Irox,2013-06-13 16:55:00,
2013-06-13 10:01:00,79.7,45.5,29.65,North,-999,-999.0,-999.0,5,0.00,,,-99.99,0.0,Linux-Irox,2013-06-13 17:01:00,
2013-06-13 10:05:00,80.1,45.9,29.65,North,-999,-999.0,-999.0,5,0.00,,,-99.99,0.0,Linux-Irox,2013-06-13 17:05:00,
2013-06-13 10:15:00,81.1,46.9,29.65,North,-999,-999.0,-999.0,5,0.00,,,-99.99,0.0,Linux-Irox,2013-06-13 17:15:00,
2013-06-13 10:17:00,81.1,46.9,29.65,North,-999,-999.0,-999.0,5,0.00,,,-99.99,0.0,Linux-Irox,2013-06-13 17:17:00,
2013-06-13 10:25:00,80.6,46.4,29.64,North,-999,-999.0,-999.0,5,0.00,,,-99.99,0.0,Linux-Irox,2013-06-13 17:25:00,
2013-06-13 10:32:00,80.2,46.0,29.64,North,-999,-999.0,-999.0,5,0.00,,,-99.99,0.0,Linux-Irox,2013-06-13 17:32:00,
2013-06-13 10:35:00,80.6,46.4,29.64,North,-999,-999.0,-999.0,5,0.00,,,-99.99,0.0,Linux-Irox,2013-06-13 17:35:00,
2013-06-13 10:45:00,80.6,46.4,29.65,North,-999,-999.0,-999.0,5,0.00,,,-99.99,0.0,Linux-Irox,2013-06-13 17:45:00,
2013-06-13 10:46:00,80.6,46.4,29.65,North,-999,-999.0,-999.0,5,0.00,,,-99.99,0.0,Linux-Irox,2013-06-13 17:46:00,
2013-06-13 10:55:00,80.4,46.2,29.65,North,-999,-999.0,-999.0,5,0.00,,,-99.99,0.0,Linux-Irox,2013-06-13 17:55:00,
2013-06-13 11:02:00,81.1,46.9,29.64,North,-999,-999.0,-999.0,5,0.00,,,-99.99,0.0,Linux-Irox,2013-06-13 18:02:00,
2013-06-13 11:05:00,80.2,46.0,29.64,North,-999,-999.0,-999.0,5,0.00,,,-99.99,0.0,Linux-Irox,2013-06-13 18:05:00,
2013-06-13 11:15:00,80.2,46.0,29.64,North,-999,-999.0,-999.0,5,0.00,,,-99.99,0.0,Linux-Irox,2013-06-13 18:15:00,
2013-06-13 11:17:00,80.2,46.0,29.64,North,-999,-999.0,-999.0,5,0.00,,,-99.99,0.0,Linux-Irox,2013-06-13 18:17:00,
2013-06-13 11:25:00,81.0,46.8,29.65,North,-999,-999.0,-999.0,5,0.00,,,-99.99,0.0,Linux-Irox,2013-06-13 18:25:00,
2013-06-13 11:32:00,81.1,46.9,29.65,North,-999,-999.0,-999.0,5,0.00,,,-99.99,0.0,Linux-Irox,2013-06-13 18:32:00,
2013-06-13 11:35:00,79.7,45.5,29.65,North,-999,-999.0,-999.0,5,0.00,,,-99.99,0.0,Linux-Irox,2013-06-13 18:35:00,
2013-06-13 11:45:00,78.4,44.2,29.65,North,-999,-999.0,-999.0,5,0.00,,,-99.99,0.0,Linux-Irox,2013-06-13 18:45:00,
2013-06-13 11:46:00,78.4,44.2,29.65,North,-999,-999.0,-999.0,5,0.00,,,-99.99,0.0,Linux-Irox,2013-06-13 18:46:00,
2013-06-13 11:55:00,80.4,46.2,29.65,North,-999,-999.0,-999.0,5,0.00,,,-99.99,0.0,Linux-Irox,2013-06-13 18:55:00,
2013-06-13 12:02:00,79.7,45.5,29.65,North,-999,-999.0,-999.0,5,0.00,,,-99.99,0.0,Linux-Irox,2013-06-13 19:02:00,
2013-06-13 12:05:00,79.7,45.5,29.65,North,-999,-999.0,-999.0,5,0.00,,,-99.99,0.0,Linux-Irox,2013-06-13 19:05:00,
2013-06-13 12:15:00,80.2,46.0,29.65,North,-999,-999.0,-999.0,5,0.00,,,-99.99,0.0,Linux-Irox,2013-06-13 19:15:00,
2013-06-13 12:16:00,80.2,46.0,29.65,North,-999,-999.0,-999.0,5,0.00,,,-99.99,0.0,Linux-Irox,2013-06-13 19:16:00,
2013-06-13 12:25:00,79.5,45.3,29.65,North,-999,-999.0,-999.0,5,0.00,,,-99.99,0.0,Linux-Irox,2013-06-13 19:25:00,
2013-06-13 12:31:00,78.4,44.2,29.65,North,-999,-999.0,-999.0,5,0.00,,,-99.99,0.0,Linux-Irox,2013-06-13 19:31:00,
2013-06-13 12:35:00,79.2,45.0,29.65,North,-999,-999.0,-999.0,5,0.00,,,-99.99,0.0,Linux-Irox,2013-06-13 19:35:00,
2013-06-13 12:45:00,79.0,44.8,29.64,North,-999,-999.0,-999.0,5,0.00,,,-99.99,0.0,Linux-Irox,2013-06-13 19:45:00,
2013-06-13 12:46:00,79.0,44.8,29.64,North,-999,-999.0,-999.0,5,0.00,,,-99.99,0.0,Linux-Irox,2013-06-13 19:46:00,
2013-06-13 12:55:00,79.7,45.5,29.64,North,-999,-999.0,-999.0,5,0.00,,,-99.99,0.0,Linux-Irox,2013-06-13 19:55:00,
2013-06-13 13:01:00,80.6,46.4,29.64,North,-999,-999.0,-999.0,5,0.00,,,-99.99,0.0,Linux-Irox,2013-06-13 20:01:00,
2013-06-13 13:05:00,79.0,44.8,29.64,North,-999,-999.0,-999.0,5,0.00,,,-99.99,0.0,Linux-Irox,2013-06-13 20:05:00,
2013-06-13 13:15:00,78.4,44.2,29.64,North,-999,-999.0,-999.0,5,0.00,,,-99.99,0.0,Linux-Irox,2013-06-13 20:15:00,
2013-06-13 13:17:00,78.4,44.2,29.64,North,-999,-999.0,-999.0,5,0.00,,,-99.99,0.0,Linux-Irox,2013-06-13 20:17:00,
2013-06-13 13:25:00,79.0,44.8,29.64,North,-999,-999.0,-999.0,5,0.00,,,-99.99,0.0,Linux-Irox,2013-06-13 20:25:00,
2013-06-13 13:32:00,79.9,45.7,29.64,North,-999,-999.0,-999.0,5,0.00,,,-99.99,0.0,Linux-Irox,2013-06-13 20:32:00,
2013-06-13 13:35:00,79.5,45.3,29.64,North,-999,-999.0,-999.0,5,0.00,,,-99.99,0.0,Linux-Irox,2013-06-13 20:35:00,
2013-06-13 13:45:00,79.5,45.3,29.64,North,-999,-999.0,-999.0,5,0.00,,,-99.99,0.0,Linux-Irox,2013-06-13 20:45:00,
2013-06-13 13:46:00,79.5,45.3,29.64,North,-999,-999.0,-999.0,5,0.00,,,-99.99,0.0,Linux-Irox,2013-06-13 20:46:00,
2013-06-13 13:55:00,79.9,45.7,29.64,North,-999,-999.0,-999.0,5,0.00,,,-99.99,0.0,Linux-Irox,2013-06-13 20:55:00,
2013-06-13 14:02:00,79.5,45.3,29.64,North,-999,-999.0,-999.0,5,0.00,,,-99.99,0.0,Linux-Irox,2013-06-13 21:02:00,
2013-06-13 14:05:00,79.9,45.7,29.64,North,-999,-999.0,-999.0,5,0.00,,,-99.99,0.0,Linux-Irox,2013-06-13 21:05:00,
2013-06-13 14:15:00,80.1,45.9,29.64,North,-999,-999.0,-999.0,5,0.00,,,-99.99,0.0,Linux-Irox,2013-06-13 21:15:00,
2013-06-13 14:16:00,80.1,45.9,29.64,North,-999,-999.0,-999.0,5,0.00,,,-99.99,0.0,Linux-Irox,2013-06-13 21:16:00,
2013-06-13 14:25:00,80.8,46.6,29.65,North,-999,-999.0,-999.0,5,0.00,,,-99.99,0.0,Linux-Irox,2013-06-13 21:25:00,
2013-06-13 14:32:00,79.5,45.3,29.65,North,-999,-999.0,-999.0,5,0.00,,,-99.99,0.0,Linux-Irox,2013-06-13 21:32:00,
2013-06-13 14:35:00,81.0,46.8,29.65,North,-999,-999.0,-999.0,5,0.00,,,-99.99,0.0,Linux-Irox,2013-06-13 21:35:00,
2013-06-13 14:45:00,82.2,48.0,29.64,North,-999,-999.0,-999.0,5,0.00,,,-99.99,0.0,Linux-Irox,2013-06-13 21:45:00,
2013-06-13 14:47:00,82.2,48.0,29.64,North,-999,-999.0,-999.0,5,0.00,,,-99.99,0.0,Linux-Irox,2013-06-13 21:47:00,
2013-06-13 14:55:00,82.6,48.4,29.64,North,-999,-999.0,-999.0,5,0.00,,,-99.99,0.0,Linux-Irox,2013-06-13 21:55:00,
2013-06-13 15:01:00,82.0,47.8,29.64,North,-999,-999.0,-999.0,5,0.00,,,-99.99,0.0,Linux-Irox,2013-06-13 22:01:00,
2013-06-13 15:05:00,83.1,48.9,29.64,North,-999,-999.0,-999.0,5,0.00,,,-99.99,0.0,Linux-Irox,2013-06-13 22:05:00,
2013-06-13 15:15:00,83.7,49.5,29.64,North,-999,-999.0,-999.0,5,0.00,,,-99.99,0.0,Linux-Irox,2013-06-13 22:15:00,
2013-06-13 15:25:00,82.6,48.4,29.64,North,-999,-999.0,-999.0,5,0.00,,,-99.99,0.0,Linux-Irox,2013-06-13 22:25:00,
2013-06-13 15:32:00,83.7,49.5,29.64,North,-999,-999.0,-999.0,5,0.00,,,-99.99,0.0,Linux-Irox,2013-06-13 22:32:00,
2013-06-13 15:35:00,82.8,48.6,29.64,North,-999,-999.0,-999.0,5,0.00,,,-99.99,0.0,Linux-Irox,2013-06-13 22:35:00,
2013-06-13 15:45:00,82.6,48.4,29.63,North,-999,-999.0,-999.0,5,0.00,,,-99.99,0.0,Linux-Irox,2013-06-13 22:45:00,
2013-06-13 15:46:00,82.6,48.4,29.63,North,-999,-999.0,-999.0,5,0.00,,,-99.99,0.0,Linux-Irox,2013-06-13 22:46:00,
2013-06-13 15:55:00,82.6,48.4,29.63,North,-999,-999.0,-999.0,5,0.00,,,-99.99,0.0,Linux-Irox,2013-06-13 22:55:00,
2013-06-13 16:01:00,82.4,48.2,29.62,North,-999,-999.0,-999.0,5,0.00,,,-99.99,0.0,Linux-Irox,2013-06-13 23:01:00,
2013-06-13 16:05:00,82.0,47.8,29.62,North,-999,-999.0,-999.0,5,0.00,,,-99.99,0.0,Linux-Irox,2013-06-13 23:05:00,
2013-06-13 16:15:00,81.7,47.5,29.62,North,-999,-999.0,-999.0,5,0.00,,,-99.99,0.0,Linux-Irox,2013-06-13 23:15:00,
2013-06-13 16:17:00,81.7,47.5,29.62,North,-999,-999.0,-999.0,5,0.00,,,-99.99,0.0,Linux-Irox,2013-06-13 23:17:00,
2013-06-13 16:25:00,80.2,46.0,29.62,North,-999,-999.0,-999.0,5,0.00,,,-99.99,0.0,Linux-Irox,2013-06-13 23:25:00,
2013-06-13 16:31:00,81.0,46.8,29.62,North,-999,-999.0,-999.0,5,0.00,,,-99.99,0.0,Linux-Irox,2013-06-13 23:31:00,
2013-06-13 16:35:00,80.4,46.2,29.62,North,-999,-999.0,-999.0,5,0.00,,,-99.99,0.0,Linux-Irox,2013-06-13 23:35:00,
2013-06-13 16:45:00,80.2,46.0,29.61,North,-999,-999.0,-999.0,5,0.00,,,-99.99,0.0,Linux-Irox,2013-06-13 23:45:00,
2013-06-13 16:47:00,80.2,46.0,29.61,North,-999,-999.0,-999.0,5,0.00,,,-99.99,0.0,Linux-Irox,2013-06-13 23:47:00,
2013-06-13 16:55:00,80.6,46.4,29.61,North,-999,-999.0,-999.0,5,0.00,,,-99.99,0.0,Linux-Irox,2013-06-13 23:55:00,
2013-06-13 17:01:00,80.4,46.2,29.60,North,-999,-999.0,-999.0,5,0.00,,,-99.99,0.0,Linux-Irox,2013-06-14 00:01:00,
2013-06-13 17:05:00,79.9,45.7,29.60,North,-999,-999.0,-999.0,5,0.00,,,-99.99,0.0,Linux-Irox,2013-06-14 00:05:00,
2013-06-13 17:15:00,79.9,45.7,29.60,North,-999,-999.0,-999.0,5,0.00,,,-99.99,0.0,Linux-Irox,2013-06-14 00:15:00,
2013-06-13 17:17:00,79.9,45.7,29.60,North,-999,-999.0,-999.0,5,0.00,,,-99.99,0.0,Linux-Irox,2013-06-14 00:17:00,
2013-06-13 17:25:00,79.0,44.8,29.59,North,-999,-999.0,-999.0,5,0.00,,,-99.99,0.0,Linux-Irox,2013-06-14 00:25:00,
2013-06-13 17:32:00,79.0,44.8,29.59,North,-999,-999.0,-999.0,5,0.00,,,-99.99,0.0,Linux-Irox,2013-06-14 00:32:00,
2013-06-13 17:35:00,79.7,45.5,29.59,North,-999,-999.0,-999.0,5,0.00,,,-99.99,0.0,Linux-Irox,2013-06-14 00:35:00,
2013-06-13 17:45:00,78.4,44.2,29.58,North,-999,-999.0,-999.0,5,0.00,,,-99.99,0.0,Linux-Irox,2013-06-14 00:45:00,
2013-06-13 17:46:00,78.4,44.2,29.58,North,-999,-999.0,-999.0,5,0.00,,,-99.99,0.0,Linux-Irox,2013-06-14 00:46:00,
2013-06-13 17:55:00,78.1,43.9,29.58,North,-999,-999.0,-999.0,5,0.00,,,-99.99,0.0,Linux-Irox,2013-06-14 00:55:00,
2013-06-13 18:01:00,77.7,43.5,29.52,North,-999,-999.0,-999.0,5,0.00,,,-99.99,0.0,Linux-Irox,2013-06-14 01:01:00,
2013-06-13 18:05:00,77.7,43.5,29.52,North,-999,-999.0,-999.0,5,0.00,,,-99.99,0.0,Linux-Irox,2013-06-14 01:05:00,
2013-06-13 18:15:00,77.4,43.2,29.52,North,-999,-999.0,-999.0,5,0.00,,,-99.99,0.0,Linux-Irox,2013-06-14 01:15:00,
2013-06-13 18:17:00,77.4,43.2,29.52,North,-999,-999.0,-999.0,5,0.00,,,-99.99,0.0,Linux-Irox,2013-06-14 01:17:00,
2013-06-13 18:25:00,77.7,43.5,29.48,North,-999,-999.0,-999.0,5,0.00,,,-99.99,0.0,Linux-Irox,2013-06-14 01:25:00,
2013-06-13 18:35:00,77.7,43.5,29.48,North,-999,-999.0,-999.0,5,0.00,,,-99.99,0.0,Linux-Irox,2013-06-14 01:35:00,
2013-06-13 18:45:00,78.1,43.9,29.47,North,-999,-999.0,-999.0,5,0.00,,,-99.99,0.0,Linux-Irox,2013-06-14 01:45:00,
2013-06-13 18:55:00,77.4,43.2,29.47,North,-999,-999.0,-999.0,5,0.00,,,-99.99,0.0,Linux-Irox,2013-06-14 01:55:00,
2013-06-13 19:05:00,78.3,44.1,29.49,North,-999,-999.0,-999.0,5,0.00,,,-99.99,0.0,Linux-Irox,2013-06-14 02:05:00,
2013-06-13 19:15:00,75.0,40.8,29.49,North,-999,-999.0,-999.0,5,0.00,,,-99.99,0.0,Linux-Irox,2013-06-14 02:15:00,
2013-06-13 19:25:00,73.2,39.0,29.54,North,-999,-999.0,-999.0,5,0.00,,,-99.99,0.0,Linux-Irox,2013-06-14 02:25:00,
2013-06-13 19:35:00,72.1,37.9,29.54,North,-999,-999.0,-999.0,5,0.00,,,-99.99,0.0,Linux-Irox,2013-06-14 02:35:00,
2013-06-13 19:45:00,71.1,36.9,29.55,North,-999,-999.0,-999.0,5,0.00,,,-99.99,0.0,Linux-Irox,2013-06-14 02:45:00,
2013-06-13 19:55:00,69.8,35.6,29.55,North,-999,-999.0,-999.0,5,0.00,,,-99.99,0.0,Linux-Irox,2013-06-14 02:55:00,
2013-06-13 20:05:00,68.7,34.5,29.56,North,-999,-999.0,-999.0,5,0.00,,,-99.99,0.0,Linux-Irox,2013-06-14 03:05:00,
2013-06-13 20:15:00,67.6,33.4,29.56,North,-999,-999.0,-999.0,5,0.00,,,-99.99,0.0,Linux-Irox,2013-06-14 03:15:00,
2013-06-13 20:25:00,66.7,32.5,29.57,North,-999,-999.0,-999.0,5,0.00,,,-99.99,0.0,Linux-Irox,2013-06-14 03:25:00,
2013-06-13 20:32:00,66.2,32.0,29.57,North,-999,-999.0,-999.0,5,0.00,,,-99.99,0.0,Linux-Irox,2013-06-14 03:32:00,
2013-06-13 20:35:00,65.8,31.6,29.57,North,-999,-999.0,-999.0,5,0.00,,,-99.99,0.0,Linux-Irox,2013-06-14 03:35:00,
2013-06-13 20:45:00,65.5,31.3,29.57,North,-999,-999.0,-999.0,5,0.00,,,-99.99,0.0,Linux-Irox,2013-06-14 03:45:00,
2013-06-13 20:47:00,65.5,31.3,29.57,North,-999,-999.0,-999.0,5,0.00,,,-99.99,0.0,Linux-Irox,2013-06-14 03:47:00,
2013-06-13 20:55:00,64.9,30.7,29.57,North,-999,-999.0,-999.0,5,0.00,,,-99.99,0.0,Linux-Irox,2013-06-14 03:55:00,
2013-06-13 21:02:00,64.8,30.6,29.57,North,-999,-999.0,-999.0,5,0.00,,,-99.99,0.0,Linux-Irox,2013-06-14 04:02:00,
2013-06-13 21:05:00,64.6,30.4,29.57,North,-999,-999.0,-999.0,5,0.00,,,-99.99,0.0,Linux-Irox,2013-06-14 04:05:00,
2013-06-13 21:15:00,64.4,30.2,29.57,North,-999,-999.0,-999.0,5,0.00,,,-99.99,0.0,Linux-Irox,2013-06-14 04:15:00,
2013-06-13 21:16:00,64.4,30.2,29.57,North,-999,-999.0,-999.0,5,0.00,,,-99.99,0.0,Linux-Irox,2013-06-14 04:16:00,
2013-06-13 21:25:00,63.9,29.7,29.57,North,-999,-999.0,-999.0,5,0.00,,,-99.99,0.0,Linux-Irox,2013-06-14 04:25:00,
2013-06-13 21:32:00,63.7,29.5,29.57,North,-999,-999.0,-999.0,5,0.00,,,-99.99,0.0,Linux-Irox,2013-06-14 04:32:00,
2013-06-13 21:35:00,63.5,29.3,29.57,North,-999,-999.0,-999.0,5,0.00,,,-99.99,0.0,Linux-Irox,2013-06-14 04:35:00,
2013-06-13 21:45:00,63.0,28.8,29.58,North,-999,-999.0,-999.0,5,0.00,,,-99.99,0.0,Linux-Irox,2013-06-14 04:45:00,
2013-06-13 21:47:00,63.0,28.8,29.58,North,-999,-999.0,-999.0,5,0.00,,,-99.99,0.0,Linux-Irox,2013-06-14 04:47:00,
2013-06-13 21:55:00,62.6,28.4,29.58,North,-999,-999.0,-999.0,5,0.00,,,-99.99,0.0,Linux-Irox,2013-06-14 04:55:00,
2013-06-13 22:05:00,62.2,28.0,29.58,North,-999,-999.0,-999.0,5,0.00,,,-99.99,0.0,Linux-Irox,2013-06-14 05:05:00,
2013-06-13 22:15:00,61.7,27.5,29.58,North,-999,-999.0,-999.0,5,0.00,,,-99.99,0.0,Linux-Irox,2013-06-14 05:15:00,
2013-06-13 22:25:00,61.9,27.7,29.61,North,-999,-999.0,-999.0,5,30.91,,,-99.99,0.0,Linux-Irox,2013-06-14 05:25:00,
2013-06-13 22:35:00,62.2,28.0,29.61,North,-999,-999.0,-999.0,5,0.00,,,-99.99,0.0,Linux-Irox,2013-06-14 05:35:00,
2013-06-13 22:45:00,61.9,27.7,29.59,North,-999,-999.0,-999.0,5,0.00,,,-99.99,0.0,Linux-Irox,2013-06-14 05:45:00,
2013-06-13 22:55:00,61.9,27.7,29.59,North,-999,-999.0,-999.0,5,0.00,,,-99.99,0.0,Linux-Irox,2013-06-14 05:55:00,
2013-06-13 23:05:00,61.3,27.1,29.59,North,-999,-999.0,-999.0,5,0.00,,,-99.99,0.0,Linux-Irox,2013-06-14 06:05:00,
2013-06-13 23:15:00,60.8,26.6,29.59,North,-999,-999.0,-999.0,5,0.00,,,-99.99,0.0,Linux-Irox,2013-06-14 06:15:00,
2013-06-13 23:25:00,60.8,26.6,29.59,North,-999,-999.0,-999.0,5,0.00,,,-99.99,0.0,Linux-Irox,2013-06-14 06:25:00,
2013-06-13 23:35:00,60.8,26.6,29.59,North,-999,-999.0,-999.0,5,0.00,,,-99.99,0.0,Linux-Irox,2013-06-14 06:35:00,
2013-06-13 23:45:00,62.1,27.9,29.59,North,-999,-999.0,-999.0,5,0.00,,,-99.99,0.0,Linux-Irox,2013-06-14 06:45:00,
2013-06-13 23:55:00,61.3,27.1,29.59,North,-999,-999.0,-999.0,5,0.00,,,-99.99,0.0,Linux-Irox,2013-06-14 06:55:00,